sensor_id;sensor_type;location;lat;lon;timestamp;P1;durP1;ratioP1;P2;durP2;ratioP2
78148;SDS011;67396;42.664;23.382;2024-01-06T00:02:05;80.43;;;42.67;;
78148;SDS011;67396;42.664;23.382;2024-01-06T00:04:31;87.53;;;44.35;;
78148;SDS011;67396;42.664;23.382;2024-01-06T00:07:00;77.57;;;41.63;;
78148;SDS011;67396;42.664;23.382;2024-01-06T00:09:25;78.65;;;40.60;;
78148;SDS011;67396;42.664;23.382;2024-01-06T00:11:51;77.38;;;42.08;;
78148;SDS011;67396;42.664;23.382;2024-01-06T00:14:16;70.97;;;36.20;;
78148;SDS011;67396;42.664;23.382;2024-01-06T00:16:42;63.67;;;34.90;;
78148;SDS011;67396;42.664;23.382;2024-01-06T00:19:07;58.50;;;30.85;;
78148;SDS011;67396;42.664;23.382;2024-01-06T00:21:33;49.85;;;25.45;;
78148;SDS011;67396;42.664;23.382;2024-01-06T00:23:58;48.85;;;25.48;;
78148;SDS011;67396;42.664;23.382;2024-01-06T00:26:24;58.38;;;27.33;;
78148;SDS011;67396;42.664;23.382;2024-01-06T00:28:49;49.05;;;27.27;;
78148;SDS011;67396;42.664;23.382;2024-01-06T00:31:15;56.95;;;27.70;;
78148;SDS011;67396;42.664;23.382;2024-01-06T00:33:44;61.75;;;28.20;;
78148;SDS011;67396;42.664;23.382;2024-01-06T00:36:10;53.42;;;27.50;;
78148;SDS011;67396;42.664;23.382;2024-01-06T00:38:36;52.40;;;27.33;;
78148;SDS011;67396;42.664;23.382;2024-01-06T00:41:01;69.93;;;34.90;;
78148;SDS011;67396;42.664;23.382;2024-01-06T00:43:27;66.38;;;31.45;;
78148;SDS011;67396;42.664;23.382;2024-01-06T00:45:52;48.58;;;25.65;;
78148;SDS011;67396;42.664;23.382;2024-01-06T00:48:18;55.25;;;24.77;;
78148;SDS011;67396;42.664;23.382;2024-01-06T00:50:44;53.90;;;24.40;;
78148;SDS011;67396;42.664;23.382;2024-01-06T00:53:09;49.67;;;23.70;;
78148;SDS011;67396;42.664;23.382;2024-01-06T00:55:35;57.33;;;26.27;;
78148;SDS011;67396;42.664;23.382;2024-01-06T00:58:00;47.20;;;24.10;;
78148;SDS011;67396;42.664;23.382;2024-01-06T01:00:26;46.47;;;22.33;;
78148;SDS011;67396;42.664;23.382;2024-01-06T01:02:52;50.90;;;24.65;;
78148;SDS011;67396;42.664;23.382;2024-01-06T01:05:18;48.60;;;22.30;;
78148;SDS011;67396;42.664;23.382;2024-01-06T01:07:43;49.83;;;23.33;;
78148;SDS011;67396;42.664;23.382;2024-01-06T01:10:09;55.25;;;24.95;;
78148;SDS011;67396;42.664;23.382;2024-01-06T01:12:35;55.65;;;25.02;;
78148;SDS011;67396;42.664;23.382;2024-01-06T01:15:00;45.75;;;22.73;;
78148;SDS011;67396;42.664;23.382;2024-01-06T01:17:26;46.33;;;25.20;;
78148;SDS011;67396;42.664;23.382;2024-01-06T01:19:51;59.60;;;31.73;;
78148;SDS011;67396;42.664;23.382;2024-01-06T01:22:17;65.90;;;32.28;;
78148;SDS011;67396;42.664;23.382;2024-01-06T01:24:43;46.85;;;25.77;;
78148;SDS011;67396;42.664;23.382;2024-01-06T01:27:09;52.13;;;25.77;;
78148;SDS011;67396;42.664;23.382;2024-01-06T01:29:34;59.15;;;27.05;;
78148;SDS011;67396;42.664;23.382;2024-01-06T01:32:00;65.72;;;29.23;;
78148;SDS011;67396;42.664;23.382;2024-01-06T01:34:26;61.00;;;30.35;;
78148;SDS011;67396;42.664;23.382;2024-01-06T01:36:51;67.53;;;31.88;;
78148;SDS011;67396;42.664;23.382;2024-01-06T01:39:17;64.60;;;30.83;;
78148;SDS011;67396;42.664;23.382;2024-01-06T01:41:43;57.22;;;30.48;;
78148;SDS011;67396;42.664;23.382;2024-01-06T01:44:08;52.97;;;28.67;;
78148;SDS011;67396;42.664;23.382;2024-01-06T01:46:34;54.90;;;27.63;;
78148;SDS011;67396;42.664;23.382;2024-01-06T01:49:00;47.72;;;25.88;;
78148;SDS011;67396;42.664;23.382;2024-01-06T01:51:27;60.55;;;29.13;;
78148;SDS011;67396;42.664;23.382;2024-01-06T01:53:55;55.55;;;27.40;;
78148;SDS011;67396;42.664;23.382;2024-01-06T01:56:22;57.53;;;28.75;;
78148;SDS011;67396;42.664;23.382;2024-01-06T01:58:49;58.05;;;30.23;;
78148;SDS011;67396;42.664;23.382;2024-01-06T02:01:15;58.28;;;28.30;;
78148;SDS011;67396;42.664;23.382;2024-01-06T02:03:42;67.72;;;36.75;;
78148;SDS011;67396;42.664;23.382;2024-01-06T02:06:11;75.55;;;39.15;;
78148;SDS011;67396;42.664;23.382;2024-01-06T02:08:36;80.22;;;40.97;;
78148;SDS011;67396;42.664;23.382;2024-01-06T02:11:02;61.60;;;32.35;;
78148;SDS011;67396;42.664;23.382;2024-01-06T02:13:35;72.32;;;34.17;;
78148;SDS011;67396;42.664;23.382;2024-01-06T02:16:04;65.30;;;30.20;;
78148;SDS011;67396;42.664;23.382;2024-01-06T02:18:31;42.03;;;21.42;;
78148;SDS011;67396;42.664;23.382;2024-01-06T02:20:58;42.45;;;21.52;;
78148;SDS011;67396;42.664;23.382;2024-01-06T02:23:24;44.15;;;20.98;;
78148;SDS011;67396;42.664;23.382;2024-01-06T02:25:50;38.53;;;19.50;;
78148;SDS011;67396;42.664;23.382;2024-01-06T02:28:15;16.08;;;8.77;;
78148;SDS011;67396;42.664;23.382;2024-01-06T02:30:41;23.83;;;13.00;;
78148;SDS011;67396;42.664;23.382;2024-01-06T02:33:06;30.13;;;14.15;;
78148;SDS011;67396;42.664;23.382;2024-01-06T02:35:32;36.55;;;17.80;;
78148;SDS011;67396;42.664;23.382;2024-01-06T02:37:57;39.47;;;18.38;;
78148;SDS011;67396;42.664;23.382;2024-01-06T02:40:23;27.20;;;10.95;;
78148;SDS011;67396;42.664;23.382;2024-01-06T02:42:48;21.73;;;10.07;;
78148;SDS011;67396;42.664;23.382;2024-01-06T02:45:14;15.85;;;8.02;;
78148;SDS011;67396;42.664;23.382;2024-01-06T02:47:39;22.13;;;11.27;;
78148;SDS011;67396;42.664;23.382;2024-01-06T02:50:05;23.70;;;12.95;;
78148;SDS011;67396;42.664;23.382;2024-01-06T02:52:31;42.08;;;21.45;;
78148;SDS011;67396;42.664;23.382;2024-01-06T02:54:56;36.22;;;20.30;;
78148;SDS011;67396;42.664;23.382;2024-01-06T02:57:22;39.03;;;18.52;;
78148;SDS011;67396;42.664;23.382;2024-01-06T02:59:47;45.67;;;23.48;;
78148;SDS011;67396;42.664;23.382;2024-01-06T03:02:13;32.78;;;17.02;;
78148;SDS011;67396;42.664;23.382;2024-01-06T03:04:38;26.13;;;12.85;;
78148;SDS011;67396;42.664;23.382;2024-01-06T03:07:04;21.48;;;12.75;;
78148;SDS011;67396;42.664;23.382;2024-01-06T03:09:29;19.92;;;10.50;;
78148;SDS011;67396;42.664;23.382;2024-01-06T03:11:55;19.30;;;10.63;;
78148;SDS011;67396;42.664;23.382;2024-01-06T03:14:21;27.58;;;14.00;;
78148;SDS011;67396;42.664;23.382;2024-01-06T03:16:46;25.85;;;12.73;;
78148;SDS011;67396;42.664;23.382;2024-01-06T03:19:12;20.33;;;10.75;;
78148;SDS011;67396;42.664;23.382;2024-01-06T03:21:37;26.35;;;13.48;;
78148;SDS011;67396;42.664;23.382;2024-01-06T03:24:03;23.92;;;11.70;;
78148;SDS011;67396;42.664;23.382;2024-01-06T03:26:29;24.15;;;12.18;;
78148;SDS011;67396;42.664;23.382;2024-01-06T03:28:55;24.58;;;10.73;;
78148;SDS011;67396;42.664;23.382;2024-01-06T03:31:21;24.27;;;12.20;;
78148;SDS011;67396;42.664;23.382;2024-01-06T03:33:47;23.23;;;11.70;;
78148;SDS011;67396;42.664;23.382;2024-01-06T03:36:13;19.42;;;10.60;;
78148;SDS011;67396;42.664;23.382;2024-01-06T03:38:41;23.88;;;12.60;;
78148;SDS011;67396;42.664;23.382;2024-01-06T03:41:06;20.63;;;11.82;;
78148;SDS011;67396;42.664;23.382;2024-01-06T03:43:32;26.92;;;10.65;;
78148;SDS011;67396;42.664;23.382;2024-01-06T03:45:58;27.23;;;11.15;;
78148;SDS011;67396;42.664;23.382;2024-01-06T03:48:25;19.15;;;11.05;;
78148;SDS011;67396;42.664;23.382;2024-01-06T03:50:51;22.15;;;11.60;;
78148;SDS011;67396;42.664;23.382;2024-01-06T03:53:16;25.27;;;11.80;;
78148;SDS011;67396;42.664;23.382;2024-01-06T03:55:42;23.75;;;11.15;;
78148;SDS011;67396;42.664;23.382;2024-01-06T03:58:08;20.45;;;10.65;;
78148;SDS011;67396;42.664;23.382;2024-01-06T04:00:33;20.98;;;10.35;;
78148;SDS011;67396;42.664;23.382;2024-01-06T04:02:59;16.17;;;7.90;;
78148;SDS011;67396;42.664;23.382;2024-01-06T04:05:24;21.42;;;10.77;;
78148;SDS011;67396;42.664;23.382;2024-01-06T04:07:50;15.57;;;8.65;;
78148;SDS011;67396;42.664;23.382;2024-01-06T04:10:15;13.75;;;7.90;;
78148;SDS011;67396;42.664;23.382;2024-01-06T04:12:41;14.50;;;7.90;;
78148;SDS011;67396;42.664;23.382;2024-01-06T04:15:07;10.52;;;5.80;;
78148;SDS011;67396;42.664;23.382;2024-01-06T04:17:32;15.75;;;7.18;;
78148;SDS011;67396;42.664;23.382;2024-01-06T04:19:58;12.50;;;6.85;;
78148;SDS011;67396;42.664;23.382;2024-01-06T04:22:23;14.98;;;8.35;;
78148;SDS011;67396;42.664;23.382;2024-01-06T04:24:49;16.65;;;9.13;;
78148;SDS011;67396;42.664;23.382;2024-01-06T04:27:14;19.05;;;7.88;;
78148;SDS011;67396;42.664;23.382;2024-01-06T04:29:40;13.02;;;7.90;;
78148;SDS011;67396;42.664;23.382;2024-01-06T04:32:06;15.98;;;7.53;;
78148;SDS011;67396;42.664;23.382;2024-01-06T04:34:32;12.77;;;7.63;;
78148;SDS011;67396;42.664;23.382;2024-01-06T04:36:58;17.10;;;7.03;;
78148;SDS011;67396;42.664;23.382;2024-01-06T04:39:23;17.05;;;6.40;;
78148;SDS011;67396;42.664;23.382;2024-01-06T04:41:49;8.80;;;5.95;;
78148;SDS011;67396;42.664;23.382;2024-01-06T04:44:14;12.40;;;6.22;;
78148;SDS011;67396;42.664;23.382;2024-01-06T04:46:40;9.10;;;5.40;;
78148;SDS011;67396;42.664;23.382;2024-01-06T04:49:05;8.48;;;5.03;;
78148;SDS011;67396;42.664;23.382;2024-01-06T04:51:31;10.30;;;5.53;;
78148;SDS011;67396;42.664;23.382;2024-01-06T04:53:56;12.23;;;6.35;;
78148;SDS011;67396;42.664;23.382;2024-01-06T04:56:22;8.90;;;4.75;;
78148;SDS011;67396;42.664;23.382;2024-01-06T04:58:47;7.53;;;3.75;;
78148;SDS011;67396;42.664;23.382;2024-01-06T05:01:13;6.30;;;2.70;;
78148;SDS011;67396;42.664;23.382;2024-01-06T05:03:39;9.85;;;4.53;;
78148;SDS011;67396;42.664;23.382;2024-01-06T05:06:04;11.45;;;4.47;;
78148;SDS011;67396;42.664;23.382;2024-01-06T05:08:30;9.55;;;4.20;;
78148;SDS011;67396;42.664;23.382;2024-01-06T05:10:56;10.13;;;5.28;;
78148;SDS011;67396;42.664;23.382;2024-01-06T05:13:21;9.52;;;5.35;;
78148;SDS011;67396;42.664;23.382;2024-01-06T05:15:47;9.20;;;4.65;;
78148;SDS011;67396;42.664;23.382;2024-01-06T05:18:12;11.68;;;5.53;;
78148;SDS011;67396;42.664;23.382;2024-01-06T05:20:38;8.98;;;4.88;;
78148;SDS011;67396;42.664;23.382;2024-01-06T05:23:05;9.60;;;5.28;;
78148;SDS011;67396;42.664;23.382;2024-01-06T05:25:31;10.50;;;5.65;;
78148;SDS011;67396;42.664;23.382;2024-01-06T05:27:57;10.45;;;6.50;;
78148;SDS011;67396;42.664;23.382;2024-01-06T05:30:22;12.25;;;6.85;;
78148;SDS011;67396;42.664;23.382;2024-01-06T05:32:48;14.32;;;7.43;;
78148;SDS011;67396;42.664;23.382;2024-01-06T05:35:13;12.73;;;6.82;;
78148;SDS011;67396;42.664;23.382;2024-01-06T05:37:41;11.43;;;6.68;;
78148;SDS011;67396;42.664;23.382;2024-01-06T05:40:06;9.05;;;5.15;;
78148;SDS011;67396;42.664;23.382;2024-01-06T05:42:32;10.02;;;5.72;;
78148;SDS011;67396;42.664;23.382;2024-01-06T05:44:58;11.93;;;5.60;;
78148;SDS011;67396;42.664;23.382;2024-01-06T05:47:23;8.30;;;5.47;;
78148;SDS011;67396;42.664;23.382;2024-01-06T05:49:49;11.15;;;4.68;;
78148;SDS011;67396;42.664;23.382;2024-01-06T05:52:15;10.82;;;5.57;;
78148;SDS011;67396;42.664;23.382;2024-01-06T05:54:40;8.63;;;5.53;;
78148;SDS011;67396;42.664;23.382;2024-01-06T05:57:09;14.15;;;6.13;;
78148;SDS011;67396;42.664;23.382;2024-01-06T05:59:34;11.23;;;4.30;;
78148;SDS011;67396;42.664;23.382;2024-01-06T06:02:00;12.30;;;5.85;;
78148;SDS011;67396;42.664;23.382;2024-01-06T06:04:26;7.85;;;3.42;;
78148;SDS011;67396;42.664;23.382;2024-01-06T06:06:51;10.27;;;4.90;;
78148;SDS011;67396;42.664;23.382;2024-01-06T06:09:17;6.25;;;4.22;;
78148;SDS011;67396;42.664;23.382;2024-01-06T06:11:42;10.55;;;4.28;;
78148;SDS011;67396;42.664;23.382;2024-01-06T06:14:08;10.77;;;4.70;;
78148;SDS011;67396;42.664;23.382;2024-01-06T06:16:34;10.63;;;5.40;;
78148;SDS011;67396;42.664;23.382;2024-01-06T06:19:00;9.38;;;4.25;;
78148;SDS011;67396;42.664;23.382;2024-01-06T06:21:25;9.60;;;4.43;;
78148;SDS011;67396;42.664;23.382;2024-01-06T06:23:51;8.10;;;5.00;;
78148;SDS011;67396;42.664;23.382;2024-01-06T06:26:17;12.68;;;5.93;;
78148;SDS011;67396;42.664;23.382;2024-01-06T06:28:43;11.18;;;5.85;;
78148;SDS011;67396;42.664;23.382;2024-01-06T06:31:08;10.00;;;4.95;;
78148;SDS011;67396;42.664;23.382;2024-01-06T06:33:34;10.48;;;5.47;;
78148;SDS011;67396;42.664;23.382;2024-01-06T06:35:59;8.40;;;5.47;;
78148;SDS011;67396;42.664;23.382;2024-01-06T06:38:25;10.70;;;5.53;;
78148;SDS011;67396;42.664;23.382;2024-01-06T06:40:51;24.83;;;7.78;;
78148;SDS011;67396;42.664;23.382;2024-01-06T06:43:17;12.13;;;6.78;;
78148;SDS011;67396;42.664;23.382;2024-01-06T06:45:42;12.15;;;6.60;;
78148;SDS011;67396;42.664;23.382;2024-01-06T06:48:08;17.52;;;7.32;;
78148;SDS011;67396;42.664;23.382;2024-01-06T06:50:33;10.50;;;6.72;;
78148;SDS011;67396;42.664;23.382;2024-01-06T06:52:59;14.02;;;6.25;;
78148;SDS011;67396;42.664;23.382;2024-01-06T06:55:26;14.38;;;7.10;;
78148;SDS011;67396;42.664;23.382;2024-01-06T06:57:53;14.25;;;6.95;;
78148;SDS011;67396;42.664;23.382;2024-01-06T07:00:19;16.88;;;7.85;;
78148;SDS011;67396;42.664;23.382;2024-01-06T07:02:45;17.33;;;7.68;;
78148;SDS011;67396;42.664;23.382;2024-01-06T07:05:10;13.30;;;6.35;;
78148;SDS011;67396;42.664;23.382;2024-01-06T07:07:36;11.38;;;6.35;;
78148;SDS011;67396;42.664;23.382;2024-01-06T07:10:03;13.98;;;6.45;;
78148;SDS011;67396;42.664;23.382;2024-01-06T07:12:30;18.98;;;6.22;;
78148;SDS011;67396;42.664;23.382;2024-01-06T07:14:56;10.95;;;6.72;;
78148;SDS011;67396;42.664;23.382;2024-01-06T07:17:21;14.18;;;5.82;;
78148;SDS011;67396;42.664;23.382;2024-01-06T07:19:47;11.40;;;5.82;;
78148;SDS011;67396;42.664;23.382;2024-01-06T07:22:13;9.65;;;5.18;;
78148;SDS011;67396;42.664;23.382;2024-01-06T07:24:41;17.50;;;7.60;;
78148;SDS011;67396;42.664;23.382;2024-01-06T07:27:07;10.90;;;6.10;;
78148;SDS011;67396;42.664;23.382;2024-01-06T07:29:32;16.23;;;7.32;;
78148;SDS011;67396;42.664;23.382;2024-01-06T07:31:58;20.90;;;6.75;;
78148;SDS011;67396;42.664;23.382;2024-01-06T07:34:23;16.30;;;7.93;;
78148;SDS011;67396;42.664;23.382;2024-01-06T07:36:50;16.40;;;8.80;;
78148;SDS011;67396;42.664;23.382;2024-01-06T07:39:16;13.98;;;7.70;;
78148;SDS011;67396;42.664;23.382;2024-01-06T07:41:41;15.45;;;7.63;;
78148;SDS011;67396;42.664;23.382;2024-01-06T07:44:07;19.42;;;8.20;;
78148;SDS011;67396;42.664;23.382;2024-01-06T07:46:32;23.80;;;8.68;;
78148;SDS011;67396;42.664;23.382;2024-01-06T07:49:00;19.05;;;7.95;;
78148;SDS011;67396;42.664;23.382;2024-01-06T07:51:25;20.20;;;8.60;;
78148;SDS011;67396;42.664;23.382;2024-01-06T07:53:51;20.75;;;8.57;;
78148;SDS011;67396;42.664;23.382;2024-01-06T07:56:16;21.30;;;8.35;;
78148;SDS011;67396;42.664;23.382;2024-01-06T07:58:43;14.30;;;8.63;;
78148;SDS011;67396;42.664;23.382;2024-01-06T08:01:08;14.45;;;8.43;;
78148;SDS011;67396;42.664;23.382;2024-01-06T08:03:34;14.18;;;7.60;;
78148;SDS011;67396;42.664;23.382;2024-01-06T08:05:59;23.08;;;8.75;;
78148;SDS011;67396;42.664;23.382;2024-01-06T08:08:25;18.65;;;8.65;;
78148;SDS011;67396;42.664;23.382;2024-01-06T08:10:51;30.52;;;9.32;;
78148;SDS011;67396;42.664;23.382;2024-01-06T08:13:16;16.90;;;8.88;;
78148;SDS011;67396;42.664;23.382;2024-01-06T08:15:42;15.10;;;7.90;;
78148;SDS011;67396;42.664;23.382;2024-01-06T08:18:08;19.95;;;8.95;;
78148;SDS011;67396;42.664;23.382;2024-01-06T08:20:33;15.75;;;8.60;;
78148;SDS011;67396;42.664;23.382;2024-01-06T08:23:00;28.25;;;10.52;;
78148;SDS011;67396;42.664;23.382;2024-01-06T08:25:25;32.95;;;16.48;;
78148;SDS011;67396;42.664;23.382;2024-01-06T08:27:51;53.55;;;20.10;;
78148;SDS011;67396;42.664;23.382;2024-01-06T08:30:16;46.83;;;22.70;;
78148;SDS011;67396;42.664;23.382;2024-01-06T08:32:42;33.75;;;17.85;;
78148;SDS011;67396;42.664;23.382;2024-01-06T08:35:07;37.85;;;17.95;;
78148;SDS011;67396;42.664;23.382;2024-01-06T08:37:34;53.38;;;22.30;;
78148;SDS011;67396;42.664;23.382;2024-01-06T08:40:00;52.78;;;22.02;;
78148;SDS011;67396;42.664;23.382;2024-01-06T08:42:25;29.67;;;14.45;;
78148;SDS011;67396;42.664;23.382;2024-01-06T08:44:51;34.22;;;19.00;;
78148;SDS011;67396;42.664;23.382;2024-01-06T08:47:17;28.80;;;16.38;;
78148;SDS011;67396;42.664;23.382;2024-01-06T08:49:42;43.85;;;20.30;;
78148;SDS011;67396;42.664;23.382;2024-01-06T08:52:08;36.97;;;19.38;;
78148;SDS011;67396;42.664;23.382;2024-01-06T08:54:33;34.40;;;16.83;;
78148;SDS011;67396;42.664;23.382;2024-01-06T08:57:00;29.75;;;14.60;;
78148;SDS011;67396;42.664;23.382;2024-01-06T08:59:25;33.15;;;17.05;;
78148;SDS011;67396;42.664;23.382;2024-01-06T09:01:51;30.42;;;17.38;;
78148;SDS011;67396;42.664;23.382;2024-01-06T09:04:17;46.67;;;26.38;;
78148;SDS011;67396;42.664;23.382;2024-01-06T09:06:43;59.05;;;31.67;;
78148;SDS011;67396;42.664;23.382;2024-01-06T09:09:10;50.95;;;31.38;;
78148;SDS011;67396;42.664;23.382;2024-01-06T09:11:35;74.55;;;36.28;;
78148;SDS011;67396;42.664;23.382;2024-01-06T09:14:01;65.15;;;30.83;;
78148;SDS011;67396;42.664;23.382;2024-01-06T09:16:27;47.25;;;26.35;;
78148;SDS011;67396;42.664;23.382;2024-01-06T09:18:53;55.42;;;30.35;;
78148;SDS011;67396;42.664;23.382;2024-01-06T09:21:18;35.10;;;19.88;;
78148;SDS011;67396;42.664;23.382;2024-01-06T09:23:43;31.10;;;17.98;;
78148;SDS011;67396;42.664;23.382;2024-01-06T09:26:09;32.10;;;17.50;;
78148;SDS011;67396;42.664;23.382;2024-01-06T09:28:35;32.35;;;16.90;;
78148;SDS011;67396;42.664;23.382;2024-01-06T09:31:01;31.45;;;17.92;;
78148;SDS011;67396;42.664;23.382;2024-01-06T09:33:26;34.47;;;17.23;;
78148;SDS011;67396;42.664;23.382;2024-01-06T09:35:52;27.65;;;16.40;;
78148;SDS011;67396;42.664;23.382;2024-01-06T09:38:18;28.48;;;16.85;;
78148;SDS011;67396;42.664;23.382;2024-01-06T09:40:44;26.33;;;14.88;;
78148;SDS011;67396;42.664;23.382;2024-01-06T09:43:10;28.98;;;15.32;;
78148;SDS011;67396;42.664;23.382;2024-01-06T09:45:37;31.15;;;15.20;;
78148;SDS011;67396;42.664;23.382;2024-01-06T09:48:13;31.70;;;16.55;;
78148;SDS011;67396;42.664;23.382;2024-01-06T09:50:43;34.55;;;16.65;;
78148;SDS011;67396;42.664;23.382;2024-01-06T09:53:12;25.90;;;15.35;;
78148;SDS011;67396;42.664;23.382;2024-01-06T09:55:39;25.35;;;15.02;;
78148;SDS011;67396;42.664;23.382;2024-01-06T09:58:04;23.92;;;13.25;;
78148;SDS011;67396;42.664;23.382;2024-01-06T10:00:34;29.95;;;17.77;;
78148;SDS011;67396;42.664;23.382;2024-01-06T10:02:59;33.35;;;17.35;;
78148;SDS011;67396;42.664;23.382;2024-01-06T10:05:25;34.70;;;18.40;;
78148;SDS011;67396;42.664;23.382;2024-01-06T10:07:50;28.00;;;16.20;;
78148;SDS011;67396;42.664;23.382;2024-01-06T10:10:17;22.88;;;13.65;;
78148;SDS011;67396;42.664;23.382;2024-01-06T10:12:42;23.75;;;11.90;;
78148;SDS011;67396;42.664;23.382;2024-01-06T10:15:09;24.90;;;12.63;;
78148;SDS011;67396;42.664;23.382;2024-01-06T10:17:39;28.00;;;15.02;;
78148;SDS011;67396;42.664;23.382;2024-01-06T10:20:09;29.60;;;15.55;;
78148;SDS011;67396;42.664;23.382;2024-01-06T10:22:37;30.95;;;16.90;;
78148;SDS011;67396;42.664;23.382;2024-01-06T10:25:07;30.45;;;15.40;;
78148;SDS011;67396;42.664;23.382;2024-01-06T10:27:34;35.88;;;16.02;;
78148;SDS011;67396;42.664;23.382;2024-01-06T10:30:01;37.30;;;17.85;;
78148;SDS011;67396;42.664;23.382;2024-01-06T10:32:27;28.10;;;16.52;;
78148;SDS011;67396;42.664;23.382;2024-01-06T10:34:55;32.95;;;17.52;;
78148;SDS011;67396;42.664;23.382;2024-01-06T10:37:21;34.58;;;18.00;;
78148;SDS011;67396;42.664;23.382;2024-01-06T10:39:46;31.25;;;16.27;;
78148;SDS011;67396;42.664;23.382;2024-01-06T10:42:12;30.65;;;15.15;;
78148;SDS011;67396;42.664;23.382;2024-01-06T10:44:40;28.00;;;15.43;;
78148;SDS011;67396;42.664;23.382;2024-01-06T10:47:07;25.75;;;14.45;;
78148;SDS011;67396;42.664;23.382;2024-01-06T10:49:34;26.50;;;15.10;;
78148;SDS011;67396;42.664;23.382;2024-01-06T10:52:02;26.90;;;13.15;;
78148;SDS011;67396;42.664;23.382;2024-01-06T10:54:29;25.63;;;14.85;;
78148;SDS011;67396;42.664;23.382;2024-01-06T10:56:56;21.35;;;11.32;;
78148;SDS011;67396;42.664;23.382;2024-01-06T10:59:23;22.92;;;9.98;;
78148;SDS011;67396;42.664;23.382;2024-01-06T11:01:51;13.38;;;8.10;;
78148;SDS011;67396;42.664;23.382;2024-01-06T11:04:18;16.13;;;7.00;;
78148;SDS011;67396;42.664;23.382;2024-01-06T11:06:45;14.23;;;7.70;;
78148;SDS011;67396;42.664;23.382;2024-01-06T11:09:31;20.17;;;8.77;;
78148;SDS011;67396;42.664;23.382;2024-01-06T11:12:00;16.17;;;7.95;;
78148;SDS011;67396;42.664;23.382;2024-01-06T11:14:26;22.00;;;8.23;;
78148;SDS011;67396;42.664;23.382;2024-01-06T11:16:59;15.45;;;8.85;;
78148;SDS011;67396;42.664;23.382;2024-01-06T11:24:48;18.65;;;10.27;;
78148;SDS011;67396;42.664;23.382;2024-01-06T11:27:22;21.17;;;11.57;;
78148;SDS011;67396;42.664;23.382;2024-01-06T11:29:57;24.02;;;11.30;;
78148;SDS011;67396;42.664;23.382;2024-01-06T11:32:25;17.77;;;10.52;;
78148;SDS011;67396;42.664;23.382;2024-01-06T11:34:53;19.67;;;10.20;;
78148;SDS011;67396;42.664;23.382;2024-01-06T11:37:34;16.60;;;10.15;;
78148;SDS011;67396;42.664;23.382;2024-01-06T11:40:09;19.15;;;9.07;;
78148;SDS011;67396;42.664;23.382;2024-01-06T11:43:04;16.58;;;9.65;;
78148;SDS011;67396;42.664;23.382;2024-01-06T11:45:31;19.08;;;9.43;;
78148;SDS011;67396;42.664;23.382;2024-01-06T11:47:58;19.02;;;9.25;;
78148;SDS011;67396;42.664;23.382;2024-01-06T11:50:26;20.42;;;8.68;;
78148;SDS011;67396;42.664;23.382;2024-01-06T11:52:52;21.38;;;9.73;;
78148;SDS011;67396;42.664;23.382;2024-01-06T11:55:18;19.65;;;10.68;;
78148;SDS011;67396;42.664;23.382;2024-01-06T11:57:44;19.33;;;10.20;;
78148;SDS011;67396;42.664;23.382;2024-01-06T12:00:10;23.17;;;10.63;;
78148;SDS011;67396;42.664;23.382;2024-01-06T12:02:38;23.88;;;11.68;;
78148;SDS011;67396;42.664;23.382;2024-01-06T12:05:04;29.77;;;13.63;;
78148;SDS011;67396;42.664;23.382;2024-01-06T12:07:30;24.80;;;13.63;;
78148;SDS011;67396;42.664;23.382;2024-01-06T12:10:02;25.45;;;14.13;;
78148;SDS011;67396;42.664;23.382;2024-01-06T12:12:29;30.45;;;14.43;;
78148;SDS011;67396;42.664;23.382;2024-01-06T12:14:54;24.38;;;13.00;;
78148;SDS011;67396;42.664;23.382;2024-01-06T12:17:20;22.50;;;11.70;;
78148;SDS011;67396;42.664;23.382;2024-01-06T12:19:46;18.42;;;9.38;;
78148;SDS011;67396;42.664;23.382;2024-01-06T12:22:13;16.77;;;9.27;;
78148;SDS011;67396;42.664;23.382;2024-01-06T12:24:40;17.17;;;9.63;;
78148;SDS011;67396;42.664;23.382;2024-01-06T12:27:07;15.75;;;9.50;;
78148;SDS011;67396;42.664;23.382;2024-01-06T12:29:37;15.77;;;9.23;;
78148;SDS011;67396;42.664;23.382;2024-01-06T12:32:05;17.05;;;10.23;;
78148;SDS011;67396;42.664;23.382;2024-01-06T12:34:31;19.00;;;9.45;;
78148;SDS011;67396;42.664;23.382;2024-01-06T12:36:56;30.02;;;14.93;;
78148;SDS011;67396;42.664;23.382;2024-01-06T12:39:22;19.52;;;10.27;;
78148;SDS011;67396;42.664;23.382;2024-01-06T12:41:48;23.08;;;10.50;;
78148;SDS011;67396;42.664;23.382;2024-01-06T12:44:15;18.02;;;10.05;;
78148;SDS011;67396;42.664;23.382;2024-01-06T12:46:41;30.00;;;12.55;;
78148;SDS011;67396;42.664;23.382;2024-01-06T12:49:06;20.85;;;11.63;;
78148;SDS011;67396;42.664;23.382;2024-01-06T12:51:32;19.15;;;9.95;;
78148;SDS011;67396;42.664;23.382;2024-01-06T12:53:58;22.50;;;11.63;;
78148;SDS011;67396;42.664;23.382;2024-01-06T12:56:23;25.13;;;11.10;;
78148;SDS011;67396;42.664;23.382;2024-01-06T12:58:49;18.27;;;9.18;;
78148;SDS011;67396;42.664;23.382;2024-01-06T13:01:14;19.63;;;9.43;;
78148;SDS011;67396;42.664;23.382;2024-01-06T13:03:40;15.07;;;9.00;;
78148;SDS011;67396;42.664;23.382;2024-01-06T13:06:08;11.18;;;6.57;;
78148;SDS011;67396;42.664;23.382;2024-01-06T13:08:35;10.18;;;6.45;;
78148;SDS011;67396;42.664;23.382;2024-01-06T13:11:00;10.38;;;5.65;;
78148;SDS011;67396;42.664;23.382;2024-01-06T13:13:26;10.43;;;5.03;;
78148;SDS011;67396;42.664;23.382;2024-01-06T13:15:51;10.27;;;5.38;;
78148;SDS011;67396;42.664;23.382;2024-01-06T13:18:17;11.18;;;4.82;;
78148;SDS011;67396;42.664;23.382;2024-01-06T13:20:42;10.52;;;4.68;;
78148;SDS011;67396;42.664;23.382;2024-01-06T13:23:08;9.63;;;5.15;;
78148;SDS011;67396;42.664;23.382;2024-01-06T13:25:36;6.90;;;4.70;;
78148;SDS011;67396;42.664;23.382;2024-01-06T13:28:02;9.02;;;4.85;;
78148;SDS011;67396;42.664;23.382;2024-01-06T13:30:27;9.65;;;5.70;;
78148;SDS011;67396;42.664;23.382;2024-01-06T13:32:53;11.38;;;5.80;;
78148;SDS011;67396;42.664;23.382;2024-01-06T13:35:22;9.43;;;5.05;;
78148;SDS011;67396;42.664;23.382;2024-01-06T13:37:51;10.05;;;5.75;;
78148;SDS011;67396;42.664;23.382;2024-01-06T13:40:17;10.77;;;5.50;;
78148;SDS011;67396;42.664;23.382;2024-01-06T13:42:47;8.13;;;4.45;;
78148;SDS011;67396;42.664;23.382;2024-01-06T13:45:15;11.55;;;5.60;;
78148;SDS011;67396;42.664;23.382;2024-01-06T13:47:42;13.07;;;5.45;;
78148;SDS011;67396;42.664;23.382;2024-01-06T13:50:12;8.98;;;4.80;;
78148;SDS011;67396;42.664;23.382;2024-01-06T13:52:40;10.98;;;6.32;;
78148;SDS011;67396;42.664;23.382;2024-01-06T13:55:06;12.70;;;6.13;;
78148;SDS011;67396;42.664;23.382;2024-01-06T13:57:31;12.88;;;6.93;;
78148;SDS011;67396;42.664;23.382;2024-01-06T13:59:57;9.23;;;5.63;;
78148;SDS011;67396;42.664;23.382;2024-01-06T14:02:23;12.88;;;6.13;;
78148;SDS011;67396;42.664;23.382;2024-01-06T14:04:50;10.55;;;6.55;;
78148;SDS011;67396;42.664;23.382;2024-01-06T14:07:16;9.23;;;5.97;;
78148;SDS011;67396;42.664;23.382;2024-01-06T14:09:45;13.70;;;7.00;;
78148;SDS011;67396;42.664;23.382;2024-01-06T14:12:11;10.30;;;6.35;;
78148;SDS011;67396;42.664;23.382;2024-01-06T14:14:36;11.75;;;6.25;;
78148;SDS011;67396;42.664;23.382;2024-01-06T14:17:02;11.18;;;5.10;;